createdAt,value
2018-02-20T00:00:00.300Z,4.40
2018-02-20T00:02:28.624Z,4.30
2018-02-20T00:04:56.389Z,4.30
2018-02-20T00:07:23.973Z,4.40
2018-02-20T00:09:51.598Z,4.40
2018-02-20T00:12:19.127Z,4.40
2018-02-20T00:14:46.662Z,4.30
2018-02-20T00:17:15.796Z,4.30
2018-02-20T00:19:43.337Z,4.30
2018-02-20T00:22:15.578Z,4.30
2018-02-20T00:24:43.114Z,4.30
2018-02-20T00:27:11.697Z,4.20
2018-02-20T00:29:39.238Z,4.20
2018-02-20T00:32:06.827Z,4.20
2018-02-20T00:34:34.398Z,4.20
2018-02-20T00:37:01.920Z,4.10
2018-02-20T00:39:29.498Z,4.10
2018-02-20T00:41:57.342Z,4.10
2018-02-20T00:44:24.884Z,4.00
2018-02-20T00:46:52.583Z,4.00
2018-02-20T00:49:20.822Z,4.00
2018-02-20T00:51:48.396Z,4.00
2018-02-20T00:54:15.946Z,4.00
2018-02-20T00:56:44.291Z,4.00
2018-02-20T00:59:11.866Z,4.00
2018-02-20T01:01:39.465Z,4.00
2018-02-20T01:04:07.018Z,4.00
2018-02-20T01:06:34.642Z,4.00
2018-02-20T01:09:02.182Z,4.00
2018-02-20T01:11:29.947Z,4.00
2018-02-20T01:13:57.490Z,4.00
2018-02-20T01:16:25.018Z,4.00
2018-02-20T01:18:52.598Z,4.00
2018-02-20T01:21:20.239Z,4.00
2018-02-20T01:23:48.547Z,4.00
2018-02-20T01:26:16.157Z,4.00
2018-02-20T01:28:43.780Z,4.00
2018-02-20T01:31:11.315Z,4.00
2018-02-20T01:33:39.706Z,4.00
2018-02-20T01:36:07.288Z,3.90
2018-02-20T01:38:34.839Z,3.90
2018-02-20T01:41:02.393Z,3.90
2018-02-20T01:43:29.976Z,3.90
2018-02-20T01:45:57.541Z,3.90
2018-02-20T01:48:25.860Z,3.90
2018-02-20T01:51:05.454Z,3.90
2018-02-20T01:53:33.041Z,3.90
2018-02-20T01:56:00.596Z,3.90
2018-02-20T01:58:28.168Z,3.90
2018-02-20T02:00:55.867Z,3.80
2018-02-20T02:03:23.645Z,3.80
2018-02-20T02:05:51.170Z,3.80
2018-02-20T02:08:18.699Z,3.80
2018-02-20T02:10:47.759Z,3.80
2018-02-20T02:13:15.306Z,3.80
2018-02-20T02:15:43.560Z,3.80
2018-02-20T02:18:11.172Z,3.80
2018-02-20T02:20:38.775Z,3.80
2018-02-20T02:23:06.376Z,3.80
2018-02-20T02:25:34.158Z,3.80
2018-02-20T02:28:01.696Z,3.80
2018-02-20T02:30:29.280Z,3.80
2018-02-20T02:32:57.208Z,3.80
2018-02-20T02:35:24.763Z,3.80
2018-02-20T02:37:52.359Z,3.80
2018-02-20T02:40:19.951Z,3.80
2018-02-20T02:42:48.258Z,3.80
2018-02-20T02:45:15.861Z,3.80
2018-02-20T02:47:43.435Z,3.80
2018-02-20T02:50:12.066Z,3.80
2018-02-20T02:52:39.668Z,3.80
2018-02-20T02:55:07.230Z,3.80
2018-02-20T02:57:34.787Z,3.80
2018-02-20T03:00:02.508Z,3.80
2018-02-20T03:02:32.932Z,3.80
2018-02-20T03:05:00.490Z,3.80
2018-02-20T03:07:28.098Z,3.80
2018-02-20T03:09:55.706Z,3.80
2018-02-20T03:12:23.239Z,3.80
2018-02-20T03:14:50.980Z,3.80
2018-02-20T03:17:18.513Z,3.80
2018-02-20T03:19:46.183Z,3.80
2018-02-20T03:22:15.014Z,3.80
2018-02-20T03:24:42.570Z,3.80
2018-02-20T03:27:10.150Z,3.80
2018-02-20T03:29:39.218Z,3.80
2018-02-20T03:32:06.790Z,3.70
2018-02-20T03:34:34.369Z,3.70
2018-02-20T03:37:01.959Z,3.70
2018-02-20T03:39:29.543Z,3.70
2018-02-20T03:41:57.113Z,3.70
2018-02-20T03:44:25.395Z,3.80
2018-02-20T03:46:53.174Z,3.70
2018-02-20T03:49:20.755Z,3.70
2018-02-20T03:51:49.076Z,3.80
2018-02-20T03:54:16.677Z,3.70
2018-02-20T03:56:45.052Z,3.70
2018-02-20T03:59:13.417Z,3.80
2018-02-20T04:01:40.997Z,3.80
2018-02-20T04:04:09.326Z,3.70
2018-02-20T04:06:36.912Z,3.70
2018-02-20T04:09:04.532Z,3.70
2018-02-20T04:11:32.197Z,3.70
2018-02-20T04:13:59.992Z,3.70
2018-02-20T04:16:27.522Z,3.70
2018-02-20T04:18:55.068Z,3.80
2018-02-20T04:21:22.667Z,3.80
2018-02-20T04:23:50.186Z,3.50
2018-02-20T04:26:17.786Z,3.30
2018-02-20T04:28:45.312Z,3.30
2018-02-20T04:31:12.862Z,3.30
2018-02-20T04:33:40.656Z,3.30
2018-02-20T04:36:09.184Z,3.40
2018-02-20T04:38:37.680Z,3.20
2018-02-20T04:41:07.570Z,3.10
2018-02-20T04:43:35.101Z,3.10
2018-02-20T04:46:02.856Z,2.90
2018-02-20T04:48:30.407Z,2.90
2018-02-20T04:50:58.017Z,3.00
2018-02-20T04:53:25.643Z,3.00
2018-02-20T04:55:53.187Z,2.90
2018-02-20T04:58:20.762Z,2.90
2018-02-20T05:00:48.544Z,3.00
2018-02-20T05:03:16.115Z,2.90
2018-02-20T05:05:43.654Z,3.00
2018-02-20T05:08:11.500Z,3.00
2018-02-20T05:10:39.137Z,3.10
2018-02-20T05:13:06.667Z,3.10
2018-02-20T05:15:35.044Z,3.10
2018-02-20T05:18:03.371Z,3.10
2018-02-20T05:20:30.906Z,3.10
2018-02-20T05:22:59.242Z,3.20
2018-02-20T05:25:26.803Z,3.20
2018-02-20T05:27:54.364Z,3.30
2018-02-20T05:30:21.969Z,3.20
2018-02-20T05:32:50.277Z,3.10
2018-02-20T05:35:17.881Z,3.10
2018-02-20T05:37:45.454Z,3.10
2018-02-20T05:40:13.076Z,3.00
2018-02-20T05:42:40.666Z,3.10
2018-02-20T05:45:08.982Z,3.10
2018-02-20T05:47:37.995Z,3.10
2018-02-20T05:50:05.729Z,3.10
2018-02-20T05:52:33.313Z,3.10
2018-02-20T05:55:00.863Z,3.10
2018-02-20T05:57:28.531Z,3.20
2018-02-20T05:59:56.143Z,3.20
2018-02-20T06:02:24.303Z,3.10
2018-02-20T06:04:51.886Z,3.10
2018-02-20T06:07:20.102Z,2.90
2018-02-20T06:09:47.674Z,3.00
2018-02-20T06:12:16.293Z,2.90
2018-02-20T06:14:43.859Z,2.90
2018-02-20T06:17:11.407Z,3.00
2018-02-20T06:19:39.205Z,3.00
2018-02-20T06:22:07.540Z,3.00
2018-02-20T06:24:35.094Z,3.00
2018-02-20T06:27:02.676Z,2.90
2018-02-20T06:29:30.217Z,2.90
2018-02-20T06:31:57.801Z,3.00
2018-02-20T06:34:26.114Z,2.90
2018-02-20T06:36:53.773Z,2.90
2018-02-20T06:39:21.312Z,3.00
2018-02-20T06:41:49.780Z,3.00
2018-02-20T06:44:17.342Z,2.90
2018-02-20T06:46:45.033Z,2.90
2018-02-20T06:49:13.337Z,2.90
2018-02-20T06:51:40.919Z,2.90
2018-02-20T06:54:08.672Z,2.90
2018-02-20T06:56:36.229Z,2.80
2018-02-20T06:59:03.766Z,2.80
2018-02-20T07:01:31.359Z,2.80
2018-02-20T07:03:58.923Z,2.80
2018-02-20T07:06:26.481Z,2.90
2018-02-20T07:08:54.038Z,2.90
2018-02-20T07:11:21.635Z,3.00
2018-02-20T07:13:49.234Z,3.00
2018-02-20T07:16:16.797Z,2.80
2018-02-20T07:18:44.341Z,2.60
2018-02-20T07:21:11.907Z,2.50
2018-02-20T07:23:39.524Z,2.50
2018-02-20T07:26:07.142Z,2.60
2018-02-20T07:28:34.745Z,2.60
2018-02-20T07:31:02.296Z,2.60
2018-02-20T07:33:29.872Z,2.60
2018-02-20T07:35:57.434Z,2.60
2018-02-20T07:38:25.076Z,2.70
2018-02-20T07:40:52.670Z,2.70
2018-02-20T07:43:20.217Z,2.80
2018-02-20T07:45:47.810Z,2.70
2018-02-20T07:48:15.381Z,2.80
2018-02-20T07:50:42.892Z,2.70
2018-02-20T07:53:12.134Z,2.80
2018-02-20T07:55:39.731Z,2.80
2018-02-20T07:58:07.276Z,2.90
2018-02-20T08:00:34.893Z,3.00
2018-02-20T08:03:03.513Z,3.20
2018-02-20T08:05:31.119Z,3.20
2018-02-20T08:07:58.717Z,3.20
2018-02-20T08:10:26.439Z,3.30
2018-02-20T08:12:53.992Z,3.40
2018-02-20T08:15:21.565Z,3.50
2018-02-20T08:17:50.177Z,3.60
2018-02-20T08:20:17.990Z,3.60
2018-02-20T08:22:46.354Z,3.50
2018-02-20T08:25:13.878Z,3.60
2018-02-20T08:27:42.213Z,3.60
2018-02-20T08:30:09.736Z,3.60
2018-02-20T08:32:37.309Z,3.70
2018-02-20T08:35:05.013Z,3.70
2018-02-20T08:37:32.629Z,3.70
2018-02-20T08:40:00.205Z,3.50
2018-02-20T08:42:28.268Z,3.60
2018-02-20T08:44:56.361Z,3.60
2018-02-20T08:47:23.886Z,3.60
2018-02-20T08:49:51.430Z,3.60
2018-02-20T08:52:19.043Z,3.60
2018-02-20T08:54:47.392Z,3.50
2018-02-20T08:57:14.928Z,3.50
2018-02-20T08:59:43.775Z,3.60
2018-02-20T09:02:11.350Z,3.50
2018-02-20T09:04:38.951Z,3.60
2018-02-20T09:07:07.872Z,3.50
2018-02-20T09:09:35.410Z,3.60
2018-02-20T09:12:02.990Z,3.50
2018-02-20T09:14:30.579Z,3.40
2018-02-20T09:16:58.118Z,3.50
2018-02-20T09:19:25.697Z,3.50
2018-02-20T09:21:53.281Z,3.60
2018-02-20T09:24:21.620Z,3.70
2018-02-20T09:26:49.421Z,3.70
2018-02-20T09:29:17.821Z,3.50
2018-02-20T09:31:45.454Z,3.50
2018-02-20T09:34:13.628Z,3.60
2018-02-20T09:36:42.347Z,3.60
2018-02-20T09:39:09.929Z,3.70
2018-02-20T09:41:37.504Z,3.60
2018-02-20T09:44:05.107Z,3.60
2018-02-20T09:46:32.728Z,3.80
2018-02-20T09:49:00.349Z,3.50
2018-02-20T09:51:27.887Z,3.40
2018-02-20T09:53:56.545Z,3.30
2018-02-20T09:56:24.137Z,3.20
2018-02-20T09:58:51.701Z,3.10
2018-02-20T10:01:20.089Z,3.40
2018-02-20T10:06:21.943Z,3.50
2018-02-20T10:08:50.296Z,3.60
2018-02-20T10:11:17.867Z,3.60
2018-02-20T10:13:45.417Z,3.50
2018-02-20T10:16:13.153Z,3.60
2018-02-20T10:18:40.878Z,3.60
2018-02-20T10:21:08.479Z,3.60
2018-02-20T10:23:36.027Z,3.60
2018-02-20T10:26:03.569Z,3.50
2018-02-20T10:28:31.169Z,3.50
2018-02-20T10:30:58.705Z,3.60
2018-02-20T10:33:26.302Z,3.60
2018-02-20T10:35:53.907Z,3.70
2018-02-20T10:38:22.199Z,3.70
2018-02-20T10:40:49.756Z,3.70
2018-02-20T10:43:17.322Z,3.70
2018-02-20T10:45:45.124Z,3.80
2018-02-20T10:48:12.698Z,3.90
2018-02-20T10:50:40.406Z,3.90
2018-02-20T10:53:08.112Z,3.90
2018-02-20T10:55:35.656Z,4.00
2018-02-20T10:58:03.219Z,3.90
2018-02-20T11:00:30.790Z,3.80
2018-02-20T11:02:58.375Z,3.70
2018-02-20T11:05:26.775Z,3.70
2018-02-20T11:07:55.373Z,3.70
2018-02-20T11:10:23.007Z,3.70
2018-02-20T11:12:51.333Z,3.60
2018-02-20T11:15:18.894Z,3.60
2018-02-20T11:17:46.968Z,3.50
2018-02-20T11:20:14.505Z,3.50
2018-02-20T11:22:42.083Z,3.50
2018-02-20T11:25:09.782Z,3.60
2018-02-20T11:27:38.113Z,3.50
2018-02-20T11:30:05.720Z,3.50
2018-02-20T11:32:33.930Z,3.50
2018-02-20T11:35:01.556Z,3.50
2018-02-20T11:37:29.107Z,3.40
2018-02-20T11:39:56.706Z,3.40
2018-02-20T11:42:24.476Z,3.50
2018-02-20T11:44:52.847Z,3.70
2018-02-20T11:47:21.456Z,3.80
2018-02-20T11:49:49.456Z,3.80
2018-02-20T11:52:17.182Z,3.90
2018-02-20T11:54:44.778Z,3.80
2018-02-20T11:57:12.341Z,3.80
2018-02-20T11:59:40.013Z,3.80
2018-02-20T12:02:07.720Z,3.80
2018-02-20T12:04:35.286Z,3.90
2018-02-20T12:07:02.937Z,3.90
2018-02-20T12:09:30.537Z,3.80
2018-02-20T12:11:58.107Z,3.80
2018-02-20T12:14:25.889Z,3.50
2018-02-20T12:16:54.239Z,3.40
2018-02-20T12:19:21.782Z,3.40
2018-02-20T12:21:49.380Z,3.40
2018-02-20T12:24:16.994Z,3.50
2018-02-20T12:26:44.607Z,3.50
2018-02-20T12:29:12.559Z,3.30
2018-02-20T12:31:44.847Z,3.40
2018-02-20T12:34:40.554Z,3.30
2018-02-20T12:37:10.798Z,3.40
2018-02-20T12:39:38.451Z,3.30
2018-02-20T12:42:06.010Z,3.30
2018-02-20T12:44:33.886Z,3.30
2018-02-20T12:47:01.449Z,3.40
2018-02-20T12:49:28.996Z,3.40
2018-02-20T12:51:56.855Z,3.50
2018-02-20T12:54:24.431Z,3.40
2018-02-20T12:56:52.636Z,3.40
2018-02-20T12:59:20.209Z,3.40
2018-02-20T13:01:47.761Z,3.50
2018-02-20T13:04:15.523Z,3.50
2018-02-20T13:06:43.067Z,3.40
2018-02-20T13:09:10.641Z,3.50
2018-02-20T13:11:39.003Z,3.60
2018-02-20T13:14:06.524Z,3.60
2018-02-20T13:16:34.124Z,3.50
2018-02-20T13:19:02.461Z,3.30
2018-02-20T13:21:30.802Z,3.40
2018-02-20T13:23:58.732Z,3.40
2018-02-20T13:26:26.321Z,3.50
2018-02-20T13:28:53.902Z,3.50
2018-02-20T13:31:21.539Z,3.40
2018-02-20T13:33:49.136Z,3.40
2018-02-20T13:36:16.759Z,3.40
2018-02-20T13:38:44.370Z,3.50
2018-02-20T13:41:11.940Z,3.50
2018-02-20T13:43:39.501Z,3.60
2018-02-20T13:46:07.397Z,3.60
2018-02-20T13:48:37.408Z,3.70
2018-02-20T13:51:04.985Z,3.80
2018-02-20T13:53:33.335Z,3.60
2018-02-20T13:56:00.879Z,3.60
2018-02-20T13:58:28.582Z,3.60
2018-02-20T14:00:57.700Z,3.60
2018-02-20T14:03:25.906Z,3.60
2018-02-20T14:05:54.619Z,3.70
2018-02-20T14:08:22.993Z,3.80
2018-02-20T14:10:50.599Z,3.80
2018-02-20T14:13:18.743Z,3.90
2018-02-20T14:15:46.683Z,3.70
2018-02-20T14:18:14.282Z,3.70
2018-02-20T14:20:41.857Z,3.70
2018-02-20T14:23:11.538Z,3.70
2018-02-20T14:25:39.197Z,3.70
2018-02-20T14:28:06.779Z,3.50
2018-02-20T14:30:35.141Z,3.70
2018-02-20T14:33:03.099Z,3.60
2018-02-20T14:35:31.159Z,3.60
2018-02-20T14:37:58.809Z,3.70
2018-02-20T14:40:26.439Z,3.60
2018-02-20T14:42:54.891Z,3.70
2018-02-20T14:45:23.123Z,3.70
2018-02-20T14:47:50.751Z,3.70
2018-02-20T14:50:19.061Z,3.90
2018-02-20T14:52:46.720Z,3.90
2018-02-20T14:55:14.398Z,3.60
2018-02-20T14:57:42.546Z,3.50
2018-02-20T15:00:10.104Z,3.40
2018-02-20T15:02:38.925Z,3.40
2018-02-20T15:05:06.761Z,3.60
2018-02-20T15:07:34.307Z,3.50
2018-02-20T15:10:02.556Z,3.40
2018-02-20T15:12:30.570Z,3.40
2018-02-20T15:14:59.781Z,3.30
2018-02-20T15:17:27.335Z,3.50
2018-02-20T15:19:54.994Z,3.60
2018-02-20T15:22:22.753Z,3.60
2018-02-20T15:24:50.364Z,3.70
2018-02-20T15:27:18.015Z,3.80
2018-02-20T15:29:46.514Z,3.80
2018-02-20T15:32:16.714Z,3.80
2018-02-20T15:34:45.065Z,3.80
2018-02-20T15:37:13.956Z,3.60
2018-02-20T15:39:42.954Z,3.60
2018-02-20T15:42:10.940Z,3.60
2018-02-20T15:44:38.562Z,3.30
2018-02-20T15:47:06.114Z,3.40
2018-02-20T15:49:33.686Z,3.30
2018-02-20T15:52:01.593Z,3.40
2018-02-20T15:54:29.127Z,3.30
2018-02-20T15:56:56.796Z,3.30
2018-02-20T15:59:25.077Z,3.30
2018-02-20T16:01:52.635Z,3.30
2018-02-20T16:04:21.114Z,3.10
2018-02-20T16:06:48.897Z,3.10
2018-02-20T16:09:16.432Z,3.10
2018-02-20T16:11:45.251Z,2.90
2018-02-20T16:14:13.320Z,2.80
2018-02-20T16:16:40.994Z,2.80
2018-02-20T16:19:08.817Z,2.90
2018-02-20T16:21:36.490Z,2.90
2018-02-20T16:24:04.048Z,3.00
2018-02-20T16:26:32.134Z,3.10
2018-02-20T16:28:59.766Z,3.10
2018-02-20T16:31:27.315Z,3.20
2018-02-20T16:33:55.682Z,3.00
2018-02-20T16:36:25.804Z,2.80
2018-02-20T16:38:53.534Z,2.80
2018-02-20T16:41:21.123Z,2.90
2018-02-20T16:43:48.667Z,3.00
2018-02-20T16:46:16.454Z,3.10
2018-02-20T16:48:44.832Z,3.10
2018-02-20T16:51:13.530Z,3.10
2018-02-20T16:53:41.320Z,3.10
2018-02-20T16:56:09.231Z,3.10
2018-02-20T16:58:37.564Z,3.00
2018-02-20T17:01:05.852Z,3.00
2018-02-20T17:03:33.448Z,3.00
2018-02-20T17:06:01.648Z,2.90
2018-02-20T17:08:29.853Z,2.80
2018-02-20T17:10:57.658Z,2.80
2018-02-20T17:13:25.997Z,2.80
2018-02-20T17:25:33.640Z,2.80
2018-02-20T17:28:01.694Z,2.50
2018-02-20T17:30:30.031Z,2.50
2018-02-20T17:32:58.306Z,2.50
2018-02-20T17:35:25.916Z,2.50
2018-02-20T17:38:00.663Z,2.50
2018-02-20T17:40:21.917Z,2.50
2018-02-20T17:42:49.515Z,2.60
2018-02-20T17:45:17.084Z,2.70
2018-02-20T17:47:44.989Z,2.70
2018-02-20T17:50:12.690Z,2.80
2018-02-20T17:52:42.143Z,3.10
2018-02-20T17:55:09.714Z,3.00
2018-02-20T17:57:37.883Z,3.10
2018-02-20T18:00:06.460Z,3.10
2018-02-20T18:02:34.119Z,3.10
2018-02-20T18:05:01.725Z,3.10
2018-02-20T18:07:30.105Z,3.20
2018-02-20T18:09:58.213Z,3.10
2018-02-20T18:12:25.789Z,3.20
2018-02-20T18:14:53.457Z,3.20
2018-02-20T18:17:21.712Z,3.20
2018-02-20T18:19:49.299Z,3.30
2018-02-20T18:22:16.901Z,3.30
2018-02-20T18:24:44.523Z,3.30
2018-02-20T18:27:12.286Z,3.30
2018-02-20T18:29:39.869Z,3.30
2018-02-20T18:32:07.468Z,3.40
2018-02-20T18:34:35.012Z,3.30
2018-02-20T18:37:03.248Z,3.40
2018-02-20T18:39:30.992Z,3.40
2018-02-20T18:41:58.535Z,3.30
2018-02-20T18:44:26.105Z,3.20
2018-02-20T18:46:53.679Z,3.30
2018-02-20T18:49:21.315Z,3.40
2018-02-20T18:51:49.631Z,3.40
2018-02-20T18:54:17.239Z,3.50
2018-02-20T18:56:45.573Z,3.40
2018-02-20T18:59:13.235Z,3.40
2018-02-20T19:01:40.984Z,3.40
2018-02-20T19:04:08.760Z,3.40
2018-02-20T19:06:36.386Z,3.30
2018-02-20T19:09:04.272Z,3.10
2018-02-20T19:11:32.212Z,3.00
2018-02-20T19:13:59.794Z,3.00
2018-02-20T19:16:27.337Z,2.90
2018-02-20T19:18:54.917Z,2.80
2018-02-20T19:21:22.664Z,2.80
2018-02-20T19:23:50.257Z,2.90
2018-02-20T19:26:17.809Z,2.90
2018-02-20T19:28:45.459Z,2.90
2018-02-20T19:31:13.919Z,2.90
2018-02-20T19:33:41.782Z,2.80
2018-02-20T19:36:09.584Z,2.90
2018-02-20T19:38:37.151Z,2.90
2018-02-20T19:41:04.725Z,2.90
2018-02-20T19:43:33.029Z,3.00
2018-02-20T19:46:00.622Z,2.90
2018-02-20T19:48:28.199Z,2.90
2018-02-20T19:50:55.821Z,2.60
2018-02-20T19:53:24.322Z,2.70
2018-02-20T19:55:52.972Z,2.80
2018-02-20T19:58:20.512Z,2.80
2018-02-20T20:00:48.070Z,2.80
2018-02-20T20:03:15.664Z,2.90
2018-02-20T20:05:43.667Z,2.70
2018-02-20T20:08:11.835Z,2.80
2018-02-20T20:10:39.835Z,2.70
2018-02-20T20:13:07.444Z,2.80
2018-02-20T20:15:35.094Z,2.80
2018-02-20T20:18:03.711Z,2.80
2018-02-20T20:20:37.010Z,2.80
2018-02-20T20:23:01.375Z,2.80
2018-02-20T20:25:29.696Z,2.70
2018-02-20T20:27:58.064Z,2.60
2018-02-20T20:30:26.355Z,2.60
2018-02-20T20:32:54.538Z,2.60
2018-02-20T20:35:23.025Z,2.60
2018-02-20T20:37:51.073Z,2.60
2018-02-20T20:40:18.862Z,2.40
2018-02-20T20:42:47.414Z,2.50
2018-02-20T20:45:15.027Z,2.50
2018-02-20T20:47:42.703Z,2.60
2018-02-20T20:50:10.540Z,2.70
2018-02-20T20:52:38.262Z,2.70
2018-02-20T20:55:07.508Z,2.80
2018-02-20T20:57:35.078Z,2.80
2018-02-20T21:00:03.607Z,2.90
2018-02-20T21:02:31.912Z,2.90
2018-02-20T21:04:59.850Z,2.90
2018-02-20T21:07:27.419Z,2.90
2018-02-20T21:09:55.114Z,2.80
2018-02-20T21:12:24.452Z,2.70
2018-02-20T21:14:52.781Z,2.60
2018-02-20T21:17:20.824Z,2.60
2018-02-20T21:19:48.392Z,2.70
2018-02-20T21:22:16.816Z,2.60
2018-02-20T21:24:44.435Z,2.70
2018-02-20T21:27:12.628Z,2.80
2018-02-20T21:29:40.808Z,2.80
2018-02-20T21:32:09.358Z,2.80
2018-02-20T21:34:37.792Z,2.90
2018-02-20T21:37:07.753Z,2.90
2018-02-20T21:39:35.850Z,2.90
2018-02-20T21:42:04.037Z,2.90
2018-02-20T21:44:32.461Z,2.90
2018-02-20T21:47:00.474Z,2.90
2018-02-20T21:49:28.012Z,2.90
2018-02-20T21:51:56.191Z,2.90
2018-02-20T21:54:24.099Z,3.00
2018-02-20T21:56:52.660Z,3.00
2018-02-20T21:59:21.186Z,3.10
2018-02-20T22:01:49.880Z,3.00
2018-02-20T22:04:18.422Z,2.90
2018-02-20T22:06:46.785Z,2.90
2018-02-20T22:09:14.960Z,3.00
2018-02-20T22:11:43.072Z,3.00
2018-02-20T22:14:11.376Z,3.00
2018-02-20T22:16:38.931Z,3.00
2018-02-20T22:19:06.662Z,2.80
2018-02-20T22:21:35.594Z,2.70
2018-02-20T22:24:03.140Z,2.80
2018-02-20T22:26:32.418Z,2.70
2018-02-20T22:29:00.766Z,2.70
2018-02-20T22:31:28.426Z,2.70
2018-02-20T22:33:56.889Z,2.70
2018-02-20T22:36:25.405Z,2.70
2018-02-20T22:38:53.657Z,2.50
2018-02-20T22:41:21.203Z,2.30
2018-02-20T22:43:49.000Z,2.20
2018-02-20T22:46:17.311Z,2.30
2018-02-20T22:48:45.509Z,2.40
2018-02-20T22:51:13.069Z,2.50
2018-02-20T22:53:41.122Z,2.60
2018-02-20T22:56:08.967Z,2.70
2018-02-20T22:58:37.270Z,2.70
2018-02-20T23:01:04.845Z,2.70
2018-02-20T23:03:33.258Z,2.90
2018-02-20T23:06:01.312Z,2.90
2018-02-20T23:08:28.876Z,3.00
2018-02-20T23:10:57.543Z,3.00
2018-02-20T23:13:26.163Z,2.80
2018-02-20T23:15:53.840Z,2.80
2018-02-20T23:18:22.203Z,2.80
2018-02-20T23:20:50.193Z,2.80
2018-02-20T23:23:17.812Z,2.80
2018-02-20T23:25:47.165Z,2.90
2018-02-20T23:28:16.028Z,2.50
2018-02-20T23:30:43.807Z,2.50
2018-02-20T23:33:12.364Z,2.50
2018-02-20T23:35:40.168Z,2.50
2018-02-20T23:38:07.938Z,2.40
2018-02-20T23:40:36.027Z,2.50
2018-02-20T23:43:04.560Z,2.50
2018-02-20T23:45:32.288Z,2.50
2018-02-20T23:48:00.527Z,2.70
2018-02-20T23:50:28.272Z,2.70
2018-02-20T23:52:56.434Z,2.60
2018-02-20T23:55:24.120Z,2.70
2018-02-20T23:57:51.707Z,2.80
